createdAt,value
2023-01-10T00:02:15.098Z,0.95
2023-01-10T00:04:47.780Z,0.70
2023-01-10T00:07:18.026Z,0.70
2023-01-10T00:09:48.233Z,0.80
2023-01-10T00:12:30.917Z,0.80
2023-01-10T00:15:01.131Z,0.73
2023-01-10T00:17:31.333Z,1.00
2023-01-10T00:20:03.888Z,0.80
2023-01-10T00:22:34.188Z,1.05
2023-01-10T00:25:04.452Z,0.90
2023-01-10T00:27:34.875Z,0.90
2023-01-10T00:30:13.754Z,0.60
2023-01-10T00:32:44.580Z,0.73
2023-01-10T00:35:17.202Z,0.77
2023-01-10T00:37:47.438Z,1.13
2023-01-10T00:40:17.673Z,1.15
2023-01-10T00:43:00.357Z,0.73
2023-01-10T00:45:30.824Z,0.60
2023-01-10T00:48:01.039Z,0.80
2023-01-10T00:50:33.541Z,0.70
2023-01-10T00:53:03.769Z,1.17
2023-01-10T00:55:34.233Z,0.90
2023-01-10T00:58:04.466Z,0.73
2023-01-10T01:00:34.390Z,0.90
2023-01-10T01:03:04.698Z,0.75
2023-01-10T01:05:37.588Z,0.90
2023-01-10T01:08:07.737Z,1.02
2023-01-10T01:10:38.036Z,0.93
2023-01-10T01:13:12.253Z,1.15
2023-01-10T01:15:42.463Z,1.20
2023-01-10T01:18:14.617Z,1.23
2023-01-10T01:20:48.502Z,1.25
2023-01-10T01:23:18.828Z,1.45
2023-01-10T01:25:48.816Z,1.10
2023-01-10T01:28:19.069Z,1.15
2023-01-10T01:30:49.509Z,1.20
2023-01-10T01:33:20.433Z,2.00
2023-01-10T01:35:53.225Z,1.30
2023-01-10T01:38:23.445Z,1.38
2023-01-10T01:40:53.821Z,1.38
2023-01-10T01:43:28.161Z,1.52
2023-01-10T01:48:39.209Z,1.75
2023-01-10T01:51:17.245Z,1.48
2023-01-10T01:53:51.325Z,1.80
2023-01-10T01:56:26.370Z,1.77
2023-01-10T01:59:00.690Z,2.00
2023-01-10T02:01:32.811Z,1.83
2023-01-10T02:04:09.759Z,1.75
2023-01-10T02:06:43.476Z,2.17
2023-01-10T02:09:20.520Z,2.22
2023-01-10T02:11:50.583Z,1.80
2023-01-10T02:14:21.102Z,2.30
2023-01-10T02:16:51.301Z,1.85
2023-01-10T02:19:29.808Z,1.80
2023-01-10T02:22:39.875Z,1.65
2023-01-10T02:25:35.740Z,1.52
2023-01-10T02:28:38.919Z,1.67
2023-01-10T02:31:29.083Z,1.88
2023-01-10T02:34:09.918Z,1.83
2023-01-10T02:36:49.169Z,1.70
2023-01-10T02:39:22.094Z,1.90
2023-01-10T02:41:59.287Z,1.75
2023-01-10T02:44:37.129Z,1.95
2023-01-10T02:47:08.126Z,1.92
2023-01-10T02:49:48.454Z,1.33
2023-01-10T02:52:23.711Z,1.50
2023-01-10T02:54:58.698Z,1.83
2023-01-10T02:57:42.310Z,1.70
2023-01-10T03:00:26.784Z,1.40
2023-01-10T03:03:08.525Z,1.52
2023-01-10T03:05:53.811Z,1.42
2023-01-10T03:08:33.961Z,2.00
2023-01-10T03:11:05.379Z,1.77
2023-01-10T03:13:40.460Z,1.73
2023-01-10T03:16:15.448Z,1.42
2023-01-10T03:18:50.536Z,1.70
2023-01-10T03:21:25.527Z,1.88
2023-01-10T03:23:58.889Z,1.67
2023-01-10T03:26:33.762Z,1.58
2023-01-10T03:29:07.971Z,1.85
2023-01-10T03:31:45.059Z,1.30
2023-01-10T03:34:15.674Z,2.15
2023-01-10T03:36:55.377Z,2.40
2023-01-10T03:39:36.093Z,2.20
2023-01-10T03:42:13.875Z,2.00
2023-01-10T03:44:50.851Z,2.05
2023-01-10T03:47:28.120Z,2.47
2023-01-10T03:50:02.488Z,2.53
2023-01-10T03:55:06.261Z,2.13
2023-01-10T03:57:36.738Z,2.20
2023-01-10T04:00:11.317Z,2.45
2023-01-10T04:02:41.852Z,1.80
2023-01-10T04:05:12.268Z,2.72
2023-01-10T04:07:44.791Z,2.42
2023-01-10T04:10:14.994Z,2.03
2023-01-10T04:12:45.241Z,2.58
2023-01-10T04:15:15.380Z,2.28
2023-01-10T04:17:45.881Z,2.13
2023-01-10T04:20:16.177Z,2.65
2023-01-10T04:22:49.920Z,2.25
2023-01-10T04:25:20.177Z,2.80
2023-01-10T04:27:51.993Z,2.47
2023-01-10T04:30:22.739Z,2.13
2023-01-10T04:32:53.517Z,2.53
2023-01-10T04:35:23.773Z,3.10
2023-01-10T04:37:56.321Z,2.55
2023-01-10T04:40:26.584Z,3.20
2023-01-10T04:42:56.833Z,2.95
2023-01-10T04:45:27.074Z,2.83
2023-01-10T04:47:57.319Z,2.95
2023-01-10T04:50:27.530Z,2.25
2023-01-10T04:53:00.082Z,2.97
2023-01-10T04:55:30.318Z,2.53
2023-01-10T04:58:00.619Z,3.35
2023-01-10T05:00:30.959Z,3.05
2023-01-10T05:03:01.354Z,2.60
2023-01-10T05:05:31.629Z,3.13
2023-01-10T05:08:04.189Z,2.35
2023-01-10T05:10:34.475Z,2.80
2023-01-10T05:13:04.704Z,2.80
2023-01-10T05:15:35.281Z,3.03
2023-01-10T05:18:05.827Z,2.42
2023-01-10T05:20:36.095Z,2.85
2023-01-10T05:23:08.718Z,2.70
2023-01-10T05:25:38.959Z,2.92
2023-01-10T05:28:09.181Z,2.80
2023-01-10T05:30:39.655Z,2.17
2023-01-10T05:33:10.041Z,3.45
2023-01-10T05:35:40.258Z,2.45
2023-01-10T05:38:12.777Z,3.03
2023-01-10T05:40:43.001Z,2.78
2023-01-10T05:43:14.124Z,2.70
2023-01-10T05:45:47.145Z,2.40
2023-01-10T05:48:17.504Z,2.92
2023-01-10T05:50:47.553Z,2.47
2023-01-10T05:53:20.447Z,2.65
2023-01-10T05:55:56.016Z,2.40
2023-01-10T05:58:26.766Z,3.15
2023-01-10T06:00:58.056Z,2.63
2023-01-10T06:03:29.014Z,2.58
2023-01-10T06:05:59.361Z,2.40
2023-01-10T06:08:32.465Z,3.03
2023-01-10T06:11:02.680Z,2.13
2023-01-10T06:13:32.895Z,2.50
2023-01-10T06:16:03.238Z,2.30
2023-01-10T06:18:33.480Z,2.53
2023-01-10T06:21:03.721Z,2.45
2023-01-10T06:23:36.306Z,2.15
2023-01-10T06:26:06.536Z,2.45
2023-01-10T06:28:36.971Z,2.35
2023-01-10T06:31:07.285Z,2.20
2023-01-10T06:33:39.018Z,3.42
2023-01-10T06:36:09.709Z,1.70
2023-01-10T06:38:42.276Z,2.05
2023-01-10T06:41:15.636Z,2.08
2023-01-10T06:43:47.080Z,2.22
2023-01-10T06:46:19.939Z,1.92
2023-01-10T06:48:51.299Z,2.28
2023-01-10T06:51:21.604Z,3.03
2023-01-10T06:53:54.185Z,2.80
2023-01-10T06:56:24.407Z,3.00
2023-01-10T06:58:54.963Z,2.60
2023-01-10T07:01:25.532Z,2.72
2023-01-10T07:03:56.090Z,2.38
2023-01-10T07:06:26.361Z,2.15
2023-01-10T07:08:59.190Z,2.58
2023-01-10T07:11:29.423Z,2.28
2023-01-10T07:13:59.636Z,2.00
2023-01-10T07:16:29.911Z,2.78
2023-01-10T07:19:00.170Z,2.63
2023-01-10T07:21:30.494Z,2.28
2023-01-10T07:24:03.168Z,1.98
2023-01-10T07:26:33.456Z,2.13
2023-01-10T07:29:03.639Z,2.60
2023-01-10T07:31:34.033Z,2.25
2023-01-10T07:34:04.390Z,2.15
2023-01-10T07:36:37.899Z,1.92
2023-01-10T07:39:11.841Z,1.98
2023-01-10T07:41:42.092Z,1.85
2023-01-10T07:44:12.158Z,1.70
2023-01-10T07:46:42.403Z,2.00
2023-01-10T07:49:14.190Z,2.20
2023-01-10T07:51:44.164Z,1.60
2023-01-10T07:54:16.771Z,1.70
2023-01-10T07:56:47.429Z,1.48
2023-01-10T07:59:17.640Z,2.10
2023-01-10T08:01:48.828Z,2.00
2023-01-10T08:04:19.030Z,1.60
2023-01-10T08:06:49.254Z,1.38
2023-01-10T08:09:21.775Z,2.13
2023-01-10T08:11:51.937Z,1.40
2023-01-10T08:14:22.181Z,1.52
2023-01-10T08:16:52.157Z,1.50
2023-01-10T08:19:22.360Z,1.42
2023-01-10T08:21:52.637Z,1.40
2023-01-10T08:24:25.161Z,1.83
2023-01-10T08:26:55.416Z,1.75
2023-01-10T08:29:25.450Z,1.70
2023-01-10T08:31:55.683Z,1.55
2023-01-10T08:34:25.939Z,1.33
2023-01-10T08:36:56.876Z,1.70
2023-01-10T08:39:31.630Z,1.83
2023-01-10T08:42:01.985Z,1.77
2023-01-10T08:44:31.933Z,1.70
2023-01-10T08:47:02.139Z,1.83
2023-01-10T08:49:32.414Z,1.45
2023-01-10T08:52:02.673Z,1.30
2023-01-10T08:54:35.298Z,1.35
2023-01-10T08:57:05.552Z,1.88
2023-01-10T08:59:35.776Z,1.30
2023-01-10T09:02:05.796Z,1.73
2023-01-10T09:04:35.748Z,1.77
2023-01-10T09:07:05.983Z,2.08
2023-01-10T09:09:39.579Z,1.77
2023-01-10T09:12:29.861Z,1.83
2023-01-10T09:14:59.797Z,2.47
2023-01-10T09:17:29.708Z,2.17
2023-01-10T09:19:59.929Z,1.90
2023-01-10T09:22:30.163Z,1.70
2023-01-10T09:25:02.676Z,1.80
2023-01-10T09:27:32.622Z,2.15
2023-01-10T09:30:02.674Z,2.03
2023-01-10T09:32:33.435Z,2.25
2023-01-10T09:35:03.649Z,2.53
2023-01-10T09:37:34.783Z,1.48
2023-01-10T09:40:09.220Z,1.98
2023-01-10T09:45:38.826Z,1.88
2023-01-10T09:48:16.053Z,2.47
2023-01-10T09:50:56.407Z,2.17
2023-01-10T09:53:29.893Z,2.30
2023-01-10T09:56:05.281Z,2.20
2023-01-10T09:58:38.560Z,2.40
2023-01-10T10:01:12.827Z,2.45
2023-01-10T10:03:49.123Z,2.30
2023-01-10T10:06:19.152Z,2.75
2023-01-10T10:08:50.322Z,1.90
2023-01-10T10:11:43.623Z,2.30
2023-01-10T10:14:23.839Z,2.53
2023-01-10T10:17:05.501Z,2.08
2023-01-10T10:19:46.791Z,3.03
2023-01-10T10:22:25.849Z,1.90
2023-01-10T10:25:04.913Z,2.15
2023-01-10T10:27:43.744Z,1.42
2023-01-10T10:30:25.893Z,3.55
2023-01-10T10:33:14.735Z,9.30
2023-01-10T10:35:48.249Z,2.45
2023-01-10T10:38:24.921Z,7.60
2023-01-10T10:40:56.431Z,6.78
2023-01-10T10:43:34.456Z,5.70
2023-01-10T10:46:09.280Z,3.13
2023-01-10T10:48:43.854Z,2.85
2023-01-10T10:51:21.615Z,2.00
2023-01-10T10:53:51.877Z,3.30
2023-01-10T10:56:26.730Z,2.13
2023-01-10T10:59:01.471Z,2.10
2023-01-10T11:01:31.829Z,1.83
2023-01-10T11:04:04.952Z,1.73
2023-01-10T11:06:38.731Z,1.88
2023-01-10T11:09:10.227Z,1.23
2023-01-10T11:11:46.578Z,2.92
2023-01-10T11:14:39.200Z,2.13
2023-01-10T11:17:22.102Z,1.30
2023-01-10T11:19:59.575Z,1.80
2023-01-10T11:22:31.509Z,1.45
2023-01-10T11:25:03.971Z,1.52
2023-01-10T11:27:35.985Z,1.23
2023-01-10T11:30:14.697Z,1.92
2023-01-10T11:32:56.095Z,1.58
2023-01-10T11:35:29.928Z,1.63
2023-01-10T11:38:04.617Z,1.42
2023-01-10T11:40:37.810Z,1.30
2023-01-10T11:43:28.112Z,1.48
2023-01-10T11:46:04.276Z,1.23
2023-01-10T11:49:04.926Z,1.25
2023-01-10T11:51:38.202Z,1.08
2023-01-10T11:54:10.411Z,1.15
2023-01-10T11:56:43.497Z,1.00
2023-01-10T11:59:17.305Z,1.20
2023-01-10T12:01:56.127Z,1.48
2023-01-10T12:04:27.044Z,0.80
2023-01-10T12:07:00.294Z,1.35
2023-01-10T12:09:43.001Z,1.10
2023-01-10T12:12:25.496Z,1.20
2023-01-10T12:14:57.305Z,1.23
2023-01-10T12:17:32.692Z,1.13
2023-01-10T12:20:04.997Z,1.00
2023-01-10T12:22:38.437Z,1.30
2023-01-10T12:25:20.768Z,1.50
2023-01-10T12:27:51.780Z,0.60
2023-01-10T12:30:27.589Z,1.42
2023-01-10T12:33:03.569Z,1.65
2023-01-10T12:35:43.237Z,1.55
2023-01-10T12:38:39.248Z,1.38
2023-01-10T12:41:33.761Z,1.60
2023-01-10T12:44:13.102Z,1.10
2023-01-10T12:47:08.330Z,1.33
2023-01-10T12:49:48.002Z,1.27
2023-01-10T12:52:23.397Z,0.98
2023-01-10T12:54:53.723Z,1.05
2023-01-10T12:57:30.660Z,1.58
2023-01-10T13:00:04.456Z,0.90
2023-01-10T13:02:44.260Z,1.00
2023-01-10T13:05:23.301Z,1.50
2023-01-10T13:07:55.453Z,1.33
2023-01-10T13:10:27.257Z,0.98
2023-01-10T13:13:03.063Z,1.55
2023-01-10T13:15:37.170Z,1.33
2023-01-10T13:18:19.501Z,1.33
2023-01-10T13:20:52.141Z,1.33
2023-01-10T13:23:30.399Z,1.55
2023-01-10T13:26:05.061Z,1.35
2023-01-10T13:28:37.539Z,1.35
2023-01-10T13:31:10.823Z,1.27
2023-01-10T13:33:54.222Z,1.75
2023-01-10T13:36:29.861Z,1.40
2023-01-10T13:39:02.111Z,1.48
2023-01-10T13:42:14.406Z,2.60
2023-01-10T13:45:15.241Z,1.63
2023-01-10T13:48:05.271Z,1.23
2023-01-10T13:50:55.065Z,1.30
2023-01-10T13:54:01.091Z,1.15
2023-01-10T13:56:39.275Z,1.60
2023-01-10T13:59:27.697Z,1.65
2023-01-10T14:02:13.787Z,1.40
2023-01-10T14:04:49.921Z,1.67
2023-01-10T14:07:26.731Z,1.05
2023-01-10T14:10:04.650Z,1.02
2023-01-10T14:12:41.510Z,1.02
2023-01-10T14:15:25.929Z,1.48
2023-01-10T14:18:04.745Z,1.40
2023-01-10T14:20:36.615Z,1.45
2023-01-10T14:23:11.910Z,1.30
2023-01-10T14:25:42.385Z,1.33
2023-01-10T14:28:25.918Z,1.05
2023-01-10T14:31:06.752Z,1.17
2023-01-10T14:33:38.405Z,1.40
2023-01-10T14:36:16.734Z,1.75
2023-01-10T14:38:48.155Z,1.23
2023-01-10T14:41:23.244Z,1.15
2023-01-10T14:43:57.967Z,2.08
2023-01-10T14:46:32.760Z,1.20
2023-01-10T14:49:03.382Z,0.98
2023-01-10T14:51:34.950Z,1.60
2023-01-10T14:54:13.613Z,1.98
2023-01-10T14:56:45.630Z,1.95
2023-01-10T14:59:28.767Z,1.35
2023-01-10T15:02:01.185Z,1.70
2023-01-10T15:04:33.376Z,1.42
2023-01-10T15:07:05.505Z,1.50
2023-01-10T15:09:57.881Z,1.23
2023-01-10T15:12:33.503Z,1.60
2023-01-10T15:15:09.806Z,1.70
2023-01-10T15:17:40.874Z,1.38
2023-01-10T15:20:16.660Z,3.50
2023-01-10T15:22:51.714Z,1.73
2023-01-10T15:25:31.000Z,3.70
2023-01-10T15:28:03.033Z,2.05
2023-01-10T15:30:40.161Z,1.70
2023-01-10T15:33:15.503Z,1.55
2023-01-10T15:35:46.216Z,2.70
2023-01-10T15:38:18.145Z,2.63
2023-01-10T15:40:48.483Z,2.30
2023-01-10T15:43:36.525Z,2.38
2023-01-10T15:46:19.911Z,2.97
2023-01-10T15:49:00.594Z,3.75
2023-01-10T15:51:32.214Z,2.15
2023-01-10T15:54:06.084Z,1.55
2023-01-10T15:56:38.947Z,1.67
2023-01-10T15:59:24.045Z,1.98
2023-01-10T16:02:01.658Z,2.33
2023-01-10T16:04:32.062Z,2.85
2023-01-10T16:07:10.565Z,2.13
2023-01-10T16:09:40.825Z,2.05
2023-01-10T16:12:42.021Z,2.42
2023-01-10T16:15:19.459Z,1.98
2023-01-10T16:17:53.102Z,2.22
2023-01-10T16:20:24.503Z,2.22
2023-01-10T16:22:55.840Z,2.30
2023-01-10T16:25:35.298Z,2.47
2023-01-10T16:28:05.617Z,2.55
2023-01-10T16:30:40.623Z,2.25
2023-01-10T16:33:16.402Z,2.13
2023-01-10T16:35:47.136Z,2.40
2023-01-10T16:38:17.896Z,1.73
2023-01-10T16:40:52.583Z,2.13
2023-01-10T16:43:21.575Z,2.20
2023-01-10T16:45:53.192Z,2.20
2023-01-10T16:48:25.884Z,2.55
2023-01-10T16:50:56.146Z,2.28
2023-01-10T16:53:26.357Z,3.40
2023-01-10T16:55:56.915Z,2.30
2023-01-10T16:58:27.235Z,2.15
2023-01-10T17:00:58.622Z,2.15
2023-01-10T17:03:32.192Z,2.42
2023-01-10T17:06:02.157Z,2.20
2023-01-10T17:08:32.489Z,3.25
2023-01-10T17:11:06.625Z,2.67
2023-01-10T17:13:40.379Z,2.65
2023-01-10T17:16:11.284Z,3.67
2023-01-10T17:18:43.959Z,3.60
2023-01-10T17:21:17.968Z,2.60
2023-01-10T17:23:48.211Z,4.32
2023-01-10T17:26:19.713Z,6.20
2023-01-10T17:28:50.062Z,4.43
2023-01-10T17:31:20.532Z,5.63
2023-01-10T17:33:53.145Z,4.20
2023-01-10T17:36:28.599Z,7.22
2023-01-10T17:38:59.141Z,12.43
2023-01-10T17:41:29.338Z,7.53
2023-01-10T17:43:59.574Z,10.38
2023-01-10T17:46:29.839Z,6.90
2023-01-10T17:49:04.032Z,5.50
2023-01-10T17:51:34.057Z,5.57
2023-01-10T17:54:04.367Z,10.38
2023-01-10T17:56:34.568Z,8.30
2023-01-10T17:59:04.827Z,9.38
2023-01-10T18:01:35.184Z,6.18
2023-01-10T18:04:08.353Z,6.03
2023-01-10T18:06:38.656Z,5.13
2023-01-10T18:09:08.927Z,5.30
2023-01-10T18:11:39.148Z,3.50
2023-01-10T18:14:21.656Z,3.55
2023-01-10T18:16:51.939Z,5.03
2023-01-10T18:19:24.517Z,3.17
2023-01-10T18:21:54.709Z,3.45
2023-01-10T18:24:24.970Z,3.20
2023-01-10T18:26:54.935Z,5.30
2023-01-10T18:29:25.347Z,4.50
2023-01-10T18:31:55.512Z,2.85
2023-01-10T18:34:28.088Z,5.03
2023-01-10T18:36:58.478Z,3.33
2023-01-10T18:39:28.779Z,2.90
2023-01-10T18:41:59.023Z,2.60
2023-01-10T18:44:29.571Z,3.22
2023-01-10T18:46:59.803Z,2.78
2023-01-10T18:49:32.527Z,2.63
2023-01-10T18:52:03.141Z,5.07
2023-01-10T18:54:33.320Z,5.13
2023-01-10T18:57:03.584Z,3.88
2023-01-10T18:59:33.855Z,4.03
2023-01-10T19:02:04.094Z,6.05
2023-01-10T19:04:39.351Z,2.95
2023-01-10T19:07:09.848Z,2.33
2023-01-10T19:09:39.809Z,2.40
2023-01-10T19:12:10.171Z,2.50
2023-01-10T19:14:40.397Z,2.53
2023-01-10T19:17:10.896Z,3.38
2023-01-10T19:19:43.531Z,2.78
2023-01-10T19:22:13.775Z,2.30
2023-01-10T19:24:43.884Z,2.70
2023-01-10T19:27:14.327Z,2.92
2023-01-10T19:29:46.169Z,3.73
2023-01-10T19:32:16.414Z,3.50
2023-01-10T19:34:49.053Z,3.33
2023-01-10T19:37:19.238Z,2.92
2023-01-10T19:39:49.550Z,3.05
2023-01-10T19:42:19.747Z,3.30
2023-01-10T19:44:50.124Z,3.90
2023-01-10T19:47:20.224Z,2.58
2023-01-10T19:49:52.757Z,3.00
2023-01-10T19:52:22.980Z,3.27
2023-01-10T19:54:53.237Z,3.40
2023-01-10T19:57:23.447Z,3.25
2023-01-10T19:59:56.623Z,3.17
2023-01-10T20:02:26.935Z,3.67
2023-01-10T20:04:59.547Z,4.30
2023-01-10T20:07:29.939Z,3.63
2023-01-10T20:10:00.477Z,4.15
2023-01-10T20:12:30.801Z,4.15
2023-01-10T20:15:00.991Z,3.77
2023-01-10T20:17:33.249Z,3.83
2023-01-10T20:20:06.239Z,3.63
2023-01-10T20:22:36.465Z,3.83
2023-01-10T20:25:06.693Z,2.87
2023-01-10T20:27:36.954Z,2.83
2023-01-10T20:30:08.810Z,2.73
2023-01-10T20:32:39.087Z,3.50
2023-01-10T20:35:13.995Z,3.43
2023-01-10T20:37:44.289Z,3.23
2023-01-10T20:40:15.327Z,5.53
2023-01-10T20:42:45.549Z,3.57
2023-01-10T20:45:15.895Z,3.53
2023-01-10T20:47:50.665Z,3.47
2023-01-10T20:50:23.989Z,2.75
2023-01-10T20:52:54.215Z,3.70
2023-01-10T20:55:24.641Z,2.43
2023-01-10T20:57:54.884Z,3.40
2023-01-10T21:00:25.280Z,3.80
2023-01-10T21:02:55.605Z,3.53
2023-01-10T21:05:28.608Z,3.33
2023-01-10T21:07:59.148Z,2.55
2023-01-10T21:10:29.377Z,2.90
2023-01-10T21:12:59.818Z,2.70
2023-01-10T21:15:30.132Z,2.13
2023-01-10T21:18:00.358Z,2.20
2023-01-10T21:20:33.248Z,2.30
2023-01-10T21:23:03.474Z,1.92
2023-01-10T21:25:34.207Z,1.83
2023-01-10T21:28:09.443Z,2.23
2023-01-10T21:30:39.736Z,1.95
2023-01-10T21:33:10.162Z,2.55
2023-01-10T21:35:43.256Z,2.30
2023-01-10T21:38:13.510Z,2.00
2023-01-10T21:40:43.781Z,3.42
2023-01-10T21:43:14.035Z,2.60
2023-01-10T21:45:44.316Z,1.80
2023-01-10T21:48:14.618Z,2.23
2023-01-10T21:50:47.436Z,1.93
2023-01-10T21:53:17.731Z,1.70
2023-01-10T21:55:48.464Z,2.17
2023-01-10T21:58:18.876Z,1.13
2023-01-10T22:00:49.199Z,1.87
2023-01-10T22:03:19.441Z,1.55
2023-01-10T22:05:52.413Z,1.00
2023-01-10T22:08:22.753Z,1.48
2023-01-10T22:10:52.990Z,1.40
2023-01-10T22:13:23.252Z,1.60
2023-01-10T22:15:53.475Z,1.83
2023-01-10T22:18:23.724Z,1.48
2023-01-10T22:20:56.900Z,1.08
2023-01-10T22:23:27.820Z,0.90
2023-01-10T22:26:01.887Z,1.67
2023-01-10T22:28:32.537Z,1.45
2023-01-10T22:31:03.094Z,1.40
2023-01-10T22:33:34.154Z,1.17
2023-01-10T22:36:09.413Z,1.42
2023-01-10T22:38:41.551Z,1.50
2023-01-10T22:41:12.651Z,1.88
2023-01-10T22:43:43.124Z,1.10
2023-01-10T22:46:15.799Z,1.80
2023-01-10T22:48:46.817Z,1.33
2023-01-10T22:51:20.966Z,1.73
2023-01-10T22:53:52.191Z,1.67
2023-01-10T22:56:23.961Z,1.33
2023-01-10T22:58:54.321Z,1.17
2023-01-10T23:01:25.740Z,1.20
2023-01-10T23:03:56.050Z,1.50
2023-01-10T23:06:29.233Z,1.30
2023-01-10T23:08:59.504Z,1.38
2023-01-10T23:11:29.800Z,1.27
2023-01-10T23:14:00.084Z,1.10
2023-01-10T23:16:32.877Z,1.05
2023-01-10T23:19:03.592Z,1.07
2023-01-10T23:21:36.410Z,0.90
2023-01-10T23:24:06.747Z,1.30
2023-01-10T23:26:36.990Z,1.10
2023-01-10T23:29:07.274Z,1.47
2023-01-10T23:31:37.591Z,1.50
2023-01-10T23:34:07.891Z,1.08
2023-01-10T23:36:42.771Z,1.60
2023-01-10T23:39:13.102Z,1.92
2023-01-10T23:41:43.379Z,1.20
2023-01-10T23:44:13.621Z,0.88
2023-01-10T23:46:43.910Z,1.13
2023-01-10T23:49:14.322Z,1.33
2023-01-10T23:51:47.154Z,0.88
2023-01-10T23:54:17.785Z,1.38
2023-01-10T23:56:48.007Z,0.82
2023-01-10T23:59:18.246Z,1.20
